Terminal Aerodrome Forecast
Issued by NWS

Home | Current Version | Previous Version | Text Only | Print | Product List | Glossary On
Versions: 1 2 3 4 5 6 7 8 9 10 11 12 13 14
000
FTUS43 KSGF 182300
TAFJLN
TAF
KJLN 182320Z 1900/1924 14006KT P6SM SKC
     FM191500 18011KT P6SM FEW060 BKN300=

USA.gov is the U.S. government's official web portal to all federal, state and local government web resources and services.